sensor_id;sensor_type;location;lat;lon;timestamp;P1;durP1;ratioP1;P2;durP2;ratioP2
38937;SDS011;24727;51.974;20.868;2023-03-01T00:01:23;48.33;;;22.87;;
38937;SDS011;24727;51.974;20.868;2023-03-01T00:03:51;53.67;;;24.17;;
38937;SDS011;24727;51.974;20.868;2023-03-01T00:06:18;51.80;;;22.88;;
38937;SDS011;24727;51.974;20.868;2023-03-01T00:08:45;52.30;;;22.75;;
38937;SDS011;24727;51.974;20.868;2023-03-01T00:13:42;44.45;;;20.65;;
38937;SDS011;24727;51.974;20.868;2023-03-01T00:16:10;50.67;;;23.13;;
38937;SDS011;24727;51.974;20.868;2023-03-01T00:18:38;48.07;;;23.07;;
38937;SDS011;24727;51.974;20.868;2023-03-01T00:21:04;56.30;;;23.90;;
38937;SDS011;24727;51.974;20.868;2023-03-01T00:23:31;52.47;;;23.65;;
38937;SDS011;24727;51.974;20.868;2023-03-01T00:25:59;51.85;;;24.02;;
38937;SDS011;24727;51.974;20.868;2023-03-01T00:28:25;48.83;;;23.17;;
38937;SDS011;24727;51.974;20.868;2023-03-01T00:30:51;55.90;;;22.93;;
38937;SDS011;24727;51.974;20.868;2023-03-01T00:33:23;54.83;;;23.90;;
38937;SDS011;24727;51.974;20.868;2023-03-01T00:38:15;51.95;;;23.27;;
38937;SDS011;24727;51.974;20.868;2023-03-01T00:40:41;49.13;;;23.60;;
38937;SDS011;24727;51.974;20.868;2023-03-01T00:43:07;50.17;;;23.73;;
38937;SDS011;24727;51.974;20.868;2023-03-01T00:45:34;49.00;;;22.33;;
38937;SDS011;24727;51.974;20.868;2023-03-01T00:48:00;50.08;;;23.13;;
38937;SDS011;24727;51.974;20.868;2023-03-01T00:50:26;45.05;;;20.80;;
38937;SDS011;24727;51.974;20.868;2023-03-01T00:52:53;48.83;;;23.23;;
38937;SDS011;24727;51.974;20.868;2023-03-01T00:55:20;49.60;;;24.08;;
38937;SDS011;24727;51.974;20.868;2023-03-01T00:57:46;48.25;;;22.65;;
38937;SDS011;24727;51.974;20.868;2023-03-01T01:00:13;43.63;;;21.67;;
38937;SDS011;24727;51.974;20.868;2023-03-01T01:02:39;49.88;;;22.25;;
38937;SDS011;24727;51.974;20.868;2023-03-01T01:05:07;49.72;;;24.63;;
38937;SDS011;24727;51.974;20.868;2023-03-01T01:07:33;43.10;;;20.83;;
38937;SDS011;24727;51.974;20.868;2023-03-01T01:09:59;52.13;;;23.20;;
38937;SDS011;24727;51.974;20.868;2023-03-01T01:12:26;50.03;;;22.10;;
38937;SDS011;24727;51.974;20.868;2023-03-01T01:14:52;51.95;;;22.95;;
38937;SDS011;24727;51.974;20.868;2023-03-01T01:17:18;46.55;;;22.88;;
38937;SDS011;24727;51.974;20.868;2023-03-01T01:19:46;49.50;;;21.52;;
38937;SDS011;24727;51.974;20.868;2023-03-01T01:22:12;49.10;;;23.23;;
38937;SDS011;24727;51.974;20.868;2023-03-01T01:24:38;45.95;;;22.00;;
38937;SDS011;24727;51.974;20.868;2023-03-01T01:27:05;49.85;;;22.45;;
38937;SDS011;24727;51.974;20.868;2023-03-01T01:29:32;46.47;;;23.20;;
38937;SDS011;24727;51.974;20.868;2023-03-01T01:31:58;44.97;;;21.87;;
38937;SDS011;24727;51.974;20.868;2023-03-01T01:34:37;49.28;;;23.95;;
38937;SDS011;24727;51.974;20.868;2023-03-01T01:37:04;51.60;;;24.30;;
38937;SDS011;24727;51.974;20.868;2023-03-01T01:42:03;51.40;;;25.00;;
38937;SDS011;24727;51.974;20.868;2023-03-01T01:44:29;54.60;;;24.00;;
38937;SDS011;24727;51.974;20.868;2023-03-01T01:52:08;51.40;;;23.67;;
38937;SDS011;24727;51.974;20.868;2023-03-01T01:54:41;53.55;;;24.60;;
38937;SDS011;24727;51.974;20.868;2023-03-01T01:57:44;56.13;;;24.25;;
38937;SDS011;24727;51.974;20.868;2023-03-01T02:00:14;53.47;;;24.70;;
38937;SDS011;24727;51.974;20.868;2023-03-01T02:02:46;51.70;;;22.77;;
38937;SDS011;24727;51.974;20.868;2023-03-01T02:08:01;47.57;;;23.37;;
38937;SDS011;24727;51.974;20.868;2023-03-01T02:10:29;49.97;;;23.17;;
38937;SDS011;24727;51.974;20.868;2023-03-01T02:12:58;54.83;;;23.92;;
38937;SDS011;24727;51.974;20.868;2023-03-01T02:15:27;52.55;;;24.15;;
38937;SDS011;24727;51.974;20.868;2023-03-01T02:17:59;54.30;;;24.60;;
38937;SDS011;24727;51.974;20.868;2023-03-01T02:23:09;60.87;;;24.80;;
38937;SDS011;24727;51.974;20.868;2023-03-01T02:28:40;55.73;;;23.40;;
38937;SDS011;24727;51.974;20.868;2023-03-01T02:31:09;53.23;;;23.93;;
38937;SDS011;24727;51.974;20.868;2023-03-01T02:33:58;52.20;;;24.35;;
38937;SDS011;24727;51.974;20.868;2023-03-01T02:36:28;56.63;;;24.30;;
38937;SDS011;24727;51.974;20.868;2023-03-01T02:38:57;50.47;;;24.33;;
38937;SDS011;24727;51.974;20.868;2023-03-01T02:41:26;55.03;;;24.98;;
38937;SDS011;24727;51.974;20.868;2023-03-01T02:43:56;50.80;;;23.20;;
38937;SDS011;24727;51.974;20.868;2023-03-01T02:46:25;53.00;;;24.17;;
38937;SDS011;24727;51.974;20.868;2023-03-01T02:48:52;53.78;;;24.33;;
38937;SDS011;24727;51.974;20.868;2023-03-01T02:51:33;53.63;;;23.45;;
38937;SDS011;24727;51.974;20.868;2023-03-01T02:54:13;51.47;;;23.83;;
38937;SDS011;24727;51.974;20.868;2023-03-01T02:56:54;52.47;;;23.93;;
38937;SDS011;24727;51.974;20.868;2023-03-01T02:59:23;50.15;;;22.23;;
38937;SDS011;24727;51.974;20.868;2023-03-01T03:01:54;51.28;;;22.75;;
38937;SDS011;24727;51.974;20.868;2023-03-01T03:04:21;51.33;;;21.58;;
38937;SDS011;24727;51.974;20.868;2023-03-01T03:06:50;50.97;;;21.67;;
38937;SDS011;24727;51.974;20.868;2023-03-01T03:09:17;51.30;;;22.15;;
38937;SDS011;24727;51.974;20.868;2023-03-01T03:11:44;48.53;;;22.87;;
38937;SDS011;24727;51.974;20.868;2023-03-01T03:14:11;44.37;;;20.10;;
38937;SDS011;24727;51.974;20.868;2023-03-01T03:16:42;46.80;;;21.63;;
38937;SDS011;24727;51.974;20.868;2023-03-01T03:19:10;37.17;;;18.00;;
38937;SDS011;24727;51.974;20.868;2023-03-01T03:21:37;43.72;;;21.42;;
38937;SDS011;24727;51.974;20.868;2023-03-01T03:24:04;51.13;;;22.07;;
38937;SDS011;24727;51.974;20.868;2023-03-01T03:26:30;42.60;;;21.13;;
38937;SDS011;24727;51.974;20.868;2023-03-01T03:28:56;44.33;;;20.13;;
38937;SDS011;24727;51.974;20.868;2023-03-01T03:31:23;44.00;;;20.97;;
38937;SDS011;24727;51.974;20.868;2023-03-01T03:33:49;52.13;;;21.43;;
38937;SDS011;24727;51.974;20.868;2023-03-01T03:36:17;43.87;;;21.03;;
38937;SDS011;24727;51.974;20.868;2023-03-01T03:38:48;42.77;;;21.03;;
38937;SDS011;24727;51.974;20.868;2023-03-01T03:41:14;46.37;;;19.50;;
38937;SDS011;24727;51.974;20.868;2023-03-01T03:43:42;42.75;;;19.45;;
38937;SDS011;24727;51.974;20.868;2023-03-01T03:46:09;42.58;;;21.08;;
38937;SDS011;24727;51.974;20.868;2023-03-01T03:48:38;42.10;;;20.05;;
38937;SDS011;24727;51.974;20.868;2023-03-01T03:51:08;41.42;;;18.38;;
38937;SDS011;24727;51.974;20.868;2023-03-01T03:53:36;43.57;;;19.00;;
38937;SDS011;24727;51.974;20.868;2023-03-01T03:58:32;38.43;;;18.43;;
38937;SDS011;24727;51.974;20.868;2023-03-01T04:01:00;39.90;;;18.63;;
38937;SDS011;24727;51.974;20.868;2023-03-01T04:03:26;35.17;;;17.27;;
38937;SDS011;24727;51.974;20.868;2023-03-01T04:05:53;38.60;;;18.43;;
38937;SDS011;24727;51.974;20.868;2023-03-01T04:08:23;41.50;;;18.83;;
38937;SDS011;24727;51.974;20.868;2023-03-01T04:10:51;36.83;;;17.67;;
38937;SDS011;24727;51.974;20.868;2023-03-01T04:13:22;38.08;;;18.88;;
38937;SDS011;24727;51.974;20.868;2023-03-01T04:15:51;41.93;;;16.90;;
38937;SDS011;24727;51.974;20.868;2023-03-01T04:18:18;35.45;;;17.08;;
38937;SDS011;24727;51.974;20.868;2023-03-01T04:20:45;34.55;;;16.63;;
38937;SDS011;24727;51.974;20.868;2023-03-01T04:23:14;38.83;;;17.40;;
38937;SDS011;24727;51.974;20.868;2023-03-01T04:25:49;38.37;;;17.53;;
38937;SDS011;24727;51.974;20.868;2023-03-01T04:28:21;37.35;;;17.33;;
38937;SDS011;24727;51.974;20.868;2023-03-01T04:31:11;40.22;;;18.95;;
38937;SDS011;24727;51.974;20.868;2023-03-01T04:33:49;36.85;;;17.35;;
38937;SDS011;24727;51.974;20.868;2023-03-01T04:36:22;37.67;;;18.48;;
38937;SDS011;24727;51.974;20.868;2023-03-01T04:38:51;34.67;;;17.67;;
38937;SDS011;24727;51.974;20.868;2023-03-01T04:41:19;35.30;;;16.85;;
38937;SDS011;24727;51.974;20.868;2023-03-01T04:43:52;41.33;;;18.67;;
38937;SDS011;24727;51.974;20.868;2023-03-01T04:46:19;37.17;;;17.63;;
38937;SDS011;24727;51.974;20.868;2023-03-01T04:48:47;39.83;;;17.80;;
38937;SDS011;24727;51.974;20.868;2023-03-01T04:51:13;36.33;;;18.45;;
38937;SDS011;24727;51.974;20.868;2023-03-01T04:53:41;45.75;;;18.90;;
38937;SDS011;24727;51.974;20.868;2023-03-01T04:56:08;36.60;;;18.93;;
38937;SDS011;24727;51.974;20.868;2023-03-01T04:58:35;33.65;;;17.25;;
38937;SDS011;24727;51.974;20.868;2023-03-01T05:01:01;37.15;;;16.92;;
38937;SDS011;24727;51.974;20.868;2023-03-01T05:03:40;38.85;;;17.80;;
38937;SDS011;24727;51.974;20.868;2023-03-01T05:06:08;34.08;;;16.55;;
38937;SDS011;24727;51.974;20.868;2023-03-01T05:08:33;37.30;;;17.58;;
38937;SDS011;24727;51.974;20.868;2023-03-01T05:11:02;38.05;;;16.95;;
38937;SDS011;24727;51.974;20.868;2023-03-01T05:13:28;39.53;;;17.50;;
38937;SDS011;24727;51.974;20.868;2023-03-01T05:15:55;36.85;;;17.70;;
38937;SDS011;24727;51.974;20.868;2023-03-01T05:18:24;41.67;;;19.30;;
38937;SDS011;24727;51.974;20.868;2023-03-01T05:20:51;37.63;;;17.98;;
38937;SDS011;24727;51.974;20.868;2023-03-01T05:23:22;35.72;;;17.92;;
38937;SDS011;24727;51.974;20.868;2023-03-01T05:25:48;36.78;;;17.30;;
38937;SDS011;24727;51.974;20.868;2023-03-01T05:28:18;42.40;;;19.15;;
38937;SDS011;24727;51.974;20.868;2023-03-01T05:30:46;41.38;;;19.10;;
38937;SDS011;24727;51.974;20.868;2023-03-01T05:33:12;39.53;;;17.40;;
38937;SDS011;24727;51.974;20.868;2023-03-01T05:35:42;40.60;;;19.20;;
38937;SDS011;24727;51.974;20.868;2023-03-01T05:38:09;34.33;;;17.00;;
38937;SDS011;24727;51.974;20.868;2023-03-01T05:40:47;40.15;;;18.08;;
38937;SDS011;24727;51.974;20.868;2023-03-01T05:43:14;35.95;;;18.02;;
38937;SDS011;24727;51.974;20.868;2023-03-01T05:45:42;36.25;;;17.83;;
38937;SDS011;24727;51.974;20.868;2023-03-01T05:48:08;35.47;;;16.95;;
38937;SDS011;24727;51.974;20.868;2023-03-01T05:50:37;35.00;;;17.35;;
38937;SDS011;24727;51.974;20.868;2023-03-01T05:53:15;33.70;;;16.77;;
38937;SDS011;24727;51.974;20.868;2023-03-01T05:55:44;36.83;;;17.90;;
38937;SDS011;24727;51.974;20.868;2023-03-01T05:58:16;39.97;;;17.77;;
38937;SDS011;24727;51.974;20.868;2023-03-01T06:03:11;33.70;;;16.73;;
38937;SDS011;24727;51.974;20.868;2023-03-01T06:05:39;42.67;;;18.77;;
38937;SDS011;24727;51.974;20.868;2023-03-01T06:08:06;36.28;;;17.33;;
38937;SDS011;24727;51.974;20.868;2023-03-01T06:10:35;39.53;;;18.75;;
38937;SDS011;24727;51.974;20.868;2023-03-01T06:13:02;36.50;;;17.15;;
38937;SDS011;24727;51.974;20.868;2023-03-01T06:15:28;39.78;;;18.65;;
38937;SDS011;24727;51.974;20.868;2023-03-01T06:17:55;35.33;;;18.65;;
38937;SDS011;24727;51.974;20.868;2023-03-01T06:20:23;35.55;;;16.80;;
38937;SDS011;24727;51.974;20.868;2023-03-01T06:22:50;37.55;;;17.98;;
38937;SDS011;24727;51.974;20.868;2023-03-01T06:25:18;35.33;;;17.98;;
38937;SDS011;24727;51.974;20.868;2023-03-01T06:27:46;38.30;;;18.50;;
38937;SDS011;24727;51.974;20.868;2023-03-01T06:30:14;40.42;;;17.88;;
38937;SDS011;24727;51.974;20.868;2023-03-01T06:32:42;34.10;;;17.30;;
38937;SDS011;24727;51.974;20.868;2023-03-01T06:35:12;35.75;;;17.30;;
38937;SDS011;24727;51.974;20.868;2023-03-01T06:37:40;35.20;;;18.10;;
38937;SDS011;24727;51.974;20.868;2023-03-01T06:40:07;36.58;;;17.05;;
38937;SDS011;24727;51.974;20.868;2023-03-01T06:42:38;43.10;;;17.25;;
38937;SDS011;24727;51.974;20.868;2023-03-01T06:45:05;33.97;;;16.85;;
38937;SDS011;24727;51.974;20.868;2023-03-01T06:47:32;35.17;;;17.25;;
38937;SDS011;24727;51.974;20.868;2023-03-01T06:49:59;31.33;;;16.52;;
38937;SDS011;24727;51.974;20.868;2023-03-01T06:52:27;36.40;;;16.77;;
38937;SDS011;24727;51.974;20.868;2023-03-01T06:54:52;34.58;;;16.95;;
38937;SDS011;24727;51.974;20.868;2023-03-01T06:57:18;31.17;;;16.42;;
38937;SDS011;24727;51.974;20.868;2023-03-01T06:59:46;40.17;;;17.77;;
38937;SDS011;24727;51.974;20.868;2023-03-01T07:02:13;38.22;;;17.85;;
38937;SDS011;24727;51.974;20.868;2023-03-01T07:04:41;32.45;;;16.80;;
38937;SDS011;24727;51.974;20.868;2023-03-01T07:07:07;30.73;;;15.57;;
38937;SDS011;24727;51.974;20.868;2023-03-01T07:09:34;33.33;;;16.85;;
38937;SDS011;24727;51.974;20.868;2023-03-01T07:12:02;32.35;;;15.68;;
38937;SDS011;24727;51.974;20.868;2023-03-01T07:14:28;35.47;;;16.05;;
38937;SDS011;24727;51.974;20.868;2023-03-01T07:16:54;35.35;;;16.27;;
38937;SDS011;24727;51.974;20.868;2023-03-01T07:19:20;32.28;;;16.05;;
38937;SDS011;24727;51.974;20.868;2023-03-01T07:21:47;27.40;;;14.60;;
38937;SDS011;24727;51.974;20.868;2023-03-01T07:24:13;27.88;;;14.85;;
38937;SDS011;24727;51.974;20.868;2023-03-01T07:26:39;31.35;;;16.75;;
38937;SDS011;24727;51.974;20.868;2023-03-01T07:29:07;29.02;;;14.52;;
38937;SDS011;24727;51.974;20.868;2023-03-01T07:31:35;31.52;;;14.82;;
38937;SDS011;24727;51.974;20.868;2023-03-01T07:34:02;31.52;;;16.52;;
38937;SDS011;24727;51.974;20.868;2023-03-01T07:36:28;31.05;;;15.60;;
38937;SDS011;24727;51.974;20.868;2023-03-01T07:38:55;26.95;;;14.70;;
38937;SDS011;24727;51.974;20.868;2023-03-01T07:41:21;30.05;;;14.15;;
38937;SDS011;24727;51.974;20.868;2023-03-01T07:43:47;33.03;;;14.55;;
38937;SDS011;24727;51.974;20.868;2023-03-01T07:46:14;29.52;;;14.30;;
38937;SDS011;24727;51.974;20.868;2023-03-01T07:48:40;27.23;;;13.55;;
38937;SDS011;24727;51.974;20.868;2023-03-01T07:51:07;32.90;;;14.45;;
38937;SDS011;24727;51.974;20.868;2023-03-01T07:53:33;28.90;;;14.63;;
38937;SDS011;24727;51.974;20.868;2023-03-01T07:56:02;29.13;;;13.55;;
38937;SDS011;24727;51.974;20.868;2023-03-01T07:58:37;27.08;;;13.18;;
38937;SDS011;24727;51.974;20.868;2023-03-01T08:01:06;26.15;;;13.27;;
38937;SDS011;24727;51.974;20.868;2023-03-01T12:08:56;12.52;;;7.22;;
38937;SDS011;24727;51.974;20.868;2023-03-01T12:14:53;12.05;;;6.20;;
38937;SDS011;24727;51.974;20.868;2023-03-01T12:23:20;13.68;;;6.25;;
38937;SDS011;24727;51.974;20.868;2023-03-01T12:26:28;10.68;;;6.15;;
38937;SDS011;24727;51.974;20.868;2023-03-01T12:29:18;11.00;;;6.13;;
38937;SDS011;24727;51.974;20.868;2023-03-01T12:37:48;11.02;;;6.05;;
38937;SDS011;24727;51.974;20.868;2023-03-01T12:43:09;16.55;;;6.93;;
38937;SDS011;24727;51.974;20.868;2023-03-01T12:48:18;12.25;;;6.00;;
38937;SDS011;24727;51.974;20.868;2023-03-01T12:50:52;10.02;;;4.97;;
38937;SDS011;24727;51.974;20.868;2023-03-01T12:56:08;13.35;;;6.18;;
38937;SDS011;24727;51.974;20.868;2023-03-01T13:10:39;10.70;;;6.60;;
38937;SDS011;24727;51.974;20.868;2023-03-01T13:13:18;17.00;;;7.95;;
38937;SDS011;24727;51.974;20.868;2023-03-01T13:15:44;14.05;;;7.25;;
38937;SDS011;24727;51.974;20.868;2023-03-01T13:26:08;20.17;;;8.68;;
38937;SDS011;24727;51.974;20.868;2023-03-01T13:44:20;18.10;;;9.40;;
38937;SDS011;24727;51.974;20.868;2023-03-01T13:46:57;15.57;;;8.98;;
38937;SDS011;24727;51.974;20.868;2023-03-01T13:49:26;17.33;;;9.32;;
38937;SDS011;24727;51.974;20.868;2023-03-01T13:51:55;17.30;;;8.18;;
38937;SDS011;24727;51.974;20.868;2023-03-01T13:54:32;16.13;;;8.40;;
38937;SDS011;24727;51.974;20.868;2023-03-01T13:56:59;15.70;;;8.82;;
38937;SDS011;24727;51.974;20.868;2023-03-01T13:59:26;17.65;;;9.82;;
38937;SDS011;24727;51.974;20.868;2023-03-01T14:01:57;15.38;;;8.60;;
38937;SDS011;24727;51.974;20.868;2023-03-01T14:04:26;16.15;;;9.30;;
38937;SDS011;24727;51.974;20.868;2023-03-01T14:09:36;16.00;;;8.38;;
38937;SDS011;24727;51.974;20.868;2023-03-01T14:20:52;18.88;;;9.57;;
38937;SDS011;24727;51.974;20.868;2023-03-01T14:23:19;20.38;;;9.63;;
38937;SDS011;24727;51.974;20.868;2023-03-01T14:25:48;16.88;;;9.27;;
38937;SDS011;24727;51.974;20.868;2023-03-01T14:28:24;16.52;;;9.25;;
38937;SDS011;24727;51.974;20.868;2023-03-01T14:30:59;17.45;;;9.27;;
38937;SDS011;24727;51.974;20.868;2023-03-01T14:38:36;17.08;;;9.93;;
38937;SDS011;24727;51.974;20.868;2023-03-01T14:41:20;19.40;;;9.35;;
38937;SDS011;24727;51.974;20.868;2023-03-01T14:43:52;18.77;;;10.27;;
38937;SDS011;24727;51.974;20.868;2023-03-01T14:46:31;16.83;;;9.80;;
38937;SDS011;24727;51.974;20.868;2023-03-01T14:49:03;18.50;;;10.80;;
38937;SDS011;24727;51.974;20.868;2023-03-01T14:57:15;16.55;;;10.23;;
38937;SDS011;24727;51.974;20.868;2023-03-01T14:59:44;17.20;;;10.57;;
38937;SDS011;24727;51.974;20.868;2023-03-01T15:02:16;21.67;;;10.88;;
38937;SDS011;24727;51.974;20.868;2023-03-01T15:04:45;23.20;;;11.13;;
38937;SDS011;24727;51.974;20.868;2023-03-01T15:07:13;19.05;;;11.30;;
38937;SDS011;24727;51.974;20.868;2023-03-01T15:09:41;21.65;;;10.32;;
38937;SDS011;24727;51.974;20.868;2023-03-01T15:14:55;22.75;;;10.77;;
38937;SDS011;24727;51.974;20.868;2023-03-01T15:17:30;24.65;;;12.07;;
38937;SDS011;24727;51.974;20.868;2023-03-01T15:19:57;23.85;;;13.15;;
38937;SDS011;24727;51.974;20.868;2023-03-01T15:22:25;19.80;;;10.82;;
38937;SDS011;24727;51.974;20.868;2023-03-01T15:24:52;19.83;;;10.85;;
38937;SDS011;24727;51.974;20.868;2023-03-01T15:27:23;24.50;;;11.40;;
38937;SDS011;24727;51.974;20.868;2023-03-01T15:29:52;24.30;;;10.88;;
38937;SDS011;24727;51.974;20.868;2023-03-01T15:34:54;23.45;;;12.32;;
38937;SDS011;24727;51.974;20.868;2023-03-01T15:37:38;22.33;;;12.73;;
38937;SDS011;24727;51.974;20.868;2023-03-01T15:40:22;22.25;;;11.73;;
38937;SDS011;24727;51.974;20.868;2023-03-01T15:43:03;24.00;;;12.07;;
38937;SDS011;24727;51.974;20.868;2023-03-01T15:45:31;25.20;;;11.15;;
38937;SDS011;24727;51.974;20.868;2023-03-01T15:48:04;21.88;;;12.30;;
38937;SDS011;24727;51.974;20.868;2023-03-01T15:50:41;22.52;;;12.75;;
38937;SDS011;24727;51.974;20.868;2023-03-01T15:53:12;26.35;;;14.25;;
38937;SDS011;24727;51.974;20.868;2023-03-01T15:55:40;23.73;;;13.32;;
38937;SDS011;24727;51.974;20.868;2023-03-01T15:58:15;23.13;;;12.63;;
38937;SDS011;24727;51.974;20.868;2023-03-01T16:00:45;26.48;;;12.82;;
38937;SDS011;24727;51.974;20.868;2023-03-01T16:03:14;25.58;;;13.65;;
38937;SDS011;24727;51.974;20.868;2023-03-01T16:05:46;28.90;;;15.07;;
38937;SDS011;24727;51.974;20.868;2023-03-01T16:08:14;25.85;;;14.38;;
38937;SDS011;24727;51.974;20.868;2023-03-01T16:10:40;24.75;;;13.32;;
38937;SDS011;24727;51.974;20.868;2023-03-01T16:13:09;20.08;;;10.45;;
38937;SDS011;24727;51.974;20.868;2023-03-01T16:15:39;23.13;;;11.50;;
38937;SDS011;24727;51.974;20.868;2023-03-01T16:18:06;17.48;;;10.10;;
38937;SDS011;24727;51.974;20.868;2023-03-01T16:20:37;16.55;;;10.07;;
38937;SDS011;24727;51.974;20.868;2023-03-01T16:23:05;24.48;;;10.80;;
38937;SDS011;24727;51.974;20.868;2023-03-01T16:25:32;20.63;;;10.23;;
38937;SDS011;24727;51.974;20.868;2023-03-01T16:28:02;20.77;;;9.63;;
38937;SDS011;24727;51.974;20.868;2023-03-01T16:30:34;18.80;;;9.90;;
38937;SDS011;24727;51.974;20.868;2023-03-01T16:33:01;19.48;;;10.52;;
38937;SDS011;24727;51.974;20.868;2023-03-01T16:35:27;15.57;;;8.77;;
38937;SDS011;24727;51.974;20.868;2023-03-01T16:37:54;17.08;;;9.10;;
38937;SDS011;24727;51.974;20.868;2023-03-01T16:40:21;19.65;;;9.50;;
38937;SDS011;24727;51.974;20.868;2023-03-01T16:42:50;20.40;;;10.77;;
38937;SDS011;24727;51.974;20.868;2023-03-01T16:45:18;21.48;;;9.90;;
38937;SDS011;24727;51.974;20.868;2023-03-01T16:47:45;16.35;;;8.60;;
38937;SDS011;24727;51.974;20.868;2023-03-01T16:50:12;19.00;;;8.68;;
38937;SDS011;24727;51.974;20.868;2023-03-01T16:52:38;19.35;;;9.35;;
38937;SDS011;24727;51.974;20.868;2023-03-01T16:55:06;22.67;;;10.88;;
38937;SDS011;24727;51.974;20.868;2023-03-01T16:57:35;21.90;;;10.75;;
38937;SDS011;24727;51.974;20.868;2023-03-01T17:00:07;25.92;;;10.35;;
38937;SDS011;24727;51.974;20.868;2023-03-01T17:02:38;20.27;;;9.90;;
38937;SDS011;24727;51.974;20.868;2023-03-01T17:05:06;17.10;;;9.45;;
38937;SDS011;24727;51.974;20.868;2023-03-01T17:07:33;18.25;;;9.75;;
38937;SDS011;24727;51.974;20.868;2023-03-01T17:10:02;19.08;;;9.23;;
38937;SDS011;24727;51.974;20.868;2023-03-01T17:12:29;17.63;;;8.45;;
38937;SDS011;24727;51.974;20.868;2023-03-01T17:14:57;19.05;;;9.40;;
38937;SDS011;24727;51.974;20.868;2023-03-01T17:17:23;20.17;;;9.38;;
38937;SDS011;24727;51.974;20.868;2023-03-01T17:19:50;16.52;;;8.43;;
38937;SDS011;24727;51.974;20.868;2023-03-01T17:22:17;15.50;;;8.80;;
38937;SDS011;24727;51.974;20.868;2023-03-01T17:24:43;22.70;;;10.52;;
38937;SDS011;24727;51.974;20.868;2023-03-01T17:27:10;21.98;;;11.90;;
38937;SDS011;24727;51.974;20.868;2023-03-01T17:29:40;25.88;;;11.88;;
38937;SDS011;24727;51.974;20.868;2023-03-01T17:32:07;16.58;;;9.52;;
38937;SDS011;24727;51.974;20.868;2023-03-01T17:34:34;19.85;;;10.82;;
38937;SDS011;24727;51.974;20.868;2023-03-01T17:37:00;22.90;;;11.13;;
38937;SDS011;24727;51.974;20.868;2023-03-01T17:39:26;26.25;;;11.00;;
38937;SDS011;24727;51.974;20.868;2023-03-01T17:42:00;26.95;;;12.85;;
38937;SDS011;24727;51.974;20.868;2023-03-01T17:44:30;27.63;;;12.73;;
38937;SDS011;24727;51.974;20.868;2023-03-01T17:47:02;26.55;;;12.98;;
38937;SDS011;24727;51.974;20.868;2023-03-01T17:49:30;24.08;;;13.43;;
38937;SDS011;24727;51.974;20.868;2023-03-01T17:51:59;27.77;;;14.18;;
38937;SDS011;24727;51.974;20.868;2023-03-01T17:54:25;25.85;;;12.77;;
38937;SDS011;24727;51.974;20.868;2023-03-01T17:56:53;25.25;;;12.73;;
38937;SDS011;24727;51.974;20.868;2023-03-01T17:59:20;25.05;;;13.07;;
38937;SDS011;24727;51.974;20.868;2023-03-01T18:01:47;23.52;;;12.15;;
38937;SDS011;24727;51.974;20.868;2023-03-01T18:04:14;26.05;;;12.82;;
38937;SDS011;24727;51.974;20.868;2023-03-01T18:06:42;21.48;;;12.13;;
38937;SDS011;24727;51.974;20.868;2023-03-01T18:09:11;25.73;;;13.63;;
38937;SDS011;24727;51.974;20.868;2023-03-01T18:11:37;24.40;;;12.13;;
38937;SDS011;24727;51.974;20.868;2023-03-01T18:14:07;27.08;;;13.07;;
38937;SDS011;24727;51.974;20.868;2023-03-01T18:16:33;25.90;;;11.77;;
38937;SDS011;24727;51.974;20.868;2023-03-01T18:19:00;26.35;;;12.38;;
38937;SDS011;24727;51.974;20.868;2023-03-01T18:21:28;25.55;;;13.20;;
38937;SDS011;24727;51.974;20.868;2023-03-01T18:23:55;27.38;;;14.30;;
38937;SDS011;24727;51.974;20.868;2023-03-01T18:26:24;24.45;;;12.52;;
38937;SDS011;24727;51.974;20.868;2023-03-01T18:28:54;24.50;;;13.40;;
38937;SDS011;24727;51.974;20.868;2023-03-01T18:31:22;29.77;;;13.25;;
38937;SDS011;24727;51.974;20.868;2023-03-01T18:33:53;27.77;;;13.75;;
38937;SDS011;24727;51.974;20.868;2023-03-01T18:36:27;25.83;;;11.90;;
38937;SDS011;24727;51.974;20.868;2023-03-01T18:38:55;28.35;;;12.80;;
38937;SDS011;24727;51.974;20.868;2023-03-01T18:41:26;27.85;;;12.82;;
38937;SDS011;24727;51.974;20.868;2023-03-01T18:43:55;23.45;;;12.15;;
38937;SDS011;24727;51.974;20.868;2023-03-01T18:46:21;27.83;;;14.48;;
38937;SDS011;24727;51.974;20.868;2023-03-01T18:48:50;34.65;;;15.50;;
38937;SDS011;24727;51.974;20.868;2023-03-01T18:51:20;37.13;;;16.35;;
38937;SDS011;24727;51.974;20.868;2023-03-01T18:53:49;32.30;;;16.67;;
38937;SDS011;24727;51.974;20.868;2023-03-01T18:56:23;38.67;;;17.85;;
38937;SDS011;24727;51.974;20.868;2023-03-01T18:58:52;33.90;;;16.45;;
38937;SDS011;24727;51.974;20.868;2023-03-01T19:01:26;38.60;;;17.75;;
38937;SDS011;24727;51.974;20.868;2023-03-01T19:03:54;34.00;;;17.38;;
38937;SDS011;24727;51.974;20.868;2023-03-01T19:06:21;36.50;;;17.63;;
38937;SDS011;24727;51.974;20.868;2023-03-01T19:08:49;35.72;;;16.42;;
38937;SDS011;24727;51.974;20.868;2023-03-01T19:11:17;29.75;;;14.60;;
38937;SDS011;24727;51.974;20.868;2023-03-01T19:13:44;27.35;;;14.98;;
38937;SDS011;24727;51.974;20.868;2023-03-01T19:16:13;36.25;;;16.35;;
38937;SDS011;24727;51.974;20.868;2023-03-01T19:18:43;33.45;;;16.70;;
38937;SDS011;24727;51.974;20.868;2023-03-01T19:21:19;32.58;;;16.33;;
38937;SDS011;24727;51.974;20.868;2023-03-01T19:23:49;36.38;;;19.02;;
38937;SDS011;24727;51.974;20.868;2023-03-01T19:26:20;31.33;;;15.63;;
38937;SDS011;24727;51.974;20.868;2023-03-01T19:28:50;32.28;;;15.88;;
38937;SDS011;24727;51.974;20.868;2023-03-01T19:31:18;38.55;;;15.95;;
38937;SDS011;24727;51.974;20.868;2023-03-01T19:33:49;29.27;;;15.55;;
38937;SDS011;24727;51.974;20.868;2023-03-01T19:36:18;32.47;;;14.88;;
38937;SDS011;24727;51.974;20.868;2023-03-01T19:38:46;29.65;;;14.82;;
38937;SDS011;24727;51.974;20.868;2023-03-01T19:41:14;33.20;;;15.00;;
38937;SDS011;24727;51.974;20.868;2023-03-01T19:43:43;32.10;;;15.73;;
38937;SDS011;24727;51.974;20.868;2023-03-01T19:46:12;30.67;;;14.45;;
38937;SDS011;24727;51.974;20.868;2023-03-01T19:48:41;29.40;;;15.07;;
38937;SDS011;24727;51.974;20.868;2023-03-01T19:51:12;29.98;;;14.10;;
38937;SDS011;24727;51.974;20.868;2023-03-01T19:53:38;28.77;;;13.68;;
38937;SDS011;24727;51.974;20.868;2023-03-01T19:56:05;27.77;;;14.27;;
38937;SDS011;24727;51.974;20.868;2023-03-01T19:58:32;30.95;;;14.25;;
38937;SDS011;24727;51.974;20.868;2023-03-01T20:00:59;28.85;;;14.98;;
38937;SDS011;24727;51.974;20.868;2023-03-01T20:03:29;29.70;;;15.45;;
38937;SDS011;24727;51.974;20.868;2023-03-01T20:05:59;32.97;;;16.08;;
38937;SDS011;24727;51.974;20.868;2023-03-01T20:08:32;29.80;;;16.38;;
38937;SDS011;24727;51.974;20.868;2023-03-01T20:11:03;38.40;;;17.88;;
38937;SDS011;24727;51.974;20.868;2023-03-01T20:13:35;30.73;;;17.17;;
38937;SDS011;24727;51.974;20.868;2023-03-01T20:16:01;34.45;;;17.38;;
38937;SDS011;24727;51.974;20.868;2023-03-01T20:18:28;38.53;;;18.67;;
38937;SDS011;24727;51.974;20.868;2023-03-01T20:20:55;37.08;;;18.73;;